sensor_id;sensor_type;location;lat;lon;timestamp;pressure;altitude;pressure_sealevel;temperature;humidity
80620;BME280;69979;53.682;-2.690;2023-05-17T17:20:34;102418.17;;;19.74;29.86
80620;BME280;69979;53.682;-2.690;2023-05-17T17:30:43;102421.24;;;20.65;26.89
80620;BME280;69979;53.682;-2.690;2023-05-17T17:33:07;102420.27;;;21.20;27.09
80620;BME280;69979;53.682;-2.690;2023-05-17T17:35:32;102419.29;;;20.49;27.95
80620;BME280;69979;53.682;-2.690;2023-05-17T17:37:58;102421.14;;;21.80;28.33
80620;BME280;69979;53.682;-2.690;2023-05-17T17:40:23;102420.82;;;21.93;29.28
80620;BME280;69979;53.682;-2.690;2023-05-17T17:42:48;102416.48;;;21.34;30.27
80620;BME280;69979;53.682;-2.690;2023-05-17T17:45:14;102419.24;;;20.90;30.92
80620;BME280;69979;53.682;-2.690;2023-05-17T17:47:40;102416.45;;;18.98;30.63
80620;BME280;69979;53.682;-2.690;2023-05-17T17:53:36;102419.17;;;22.90;27.61
80620;BME280;69979;53.682;-2.690;2023-05-17T17:56:01;102414.86;;;22.67;27.76
80620;BME280;69979;53.682;-2.690;2023-05-17T17:58:26;102418.02;;;22.55;28.14
80620;BME280;69979;53.682;-2.690;2023-05-17T18:00:52;102415.55;;;22.44;27.93
80620;BME280;69979;53.682;-2.690;2023-05-17T18:03:17;102414.26;;;23.04;27.90
80620;BME280;69979;53.682;-2.690;2023-05-17T18:05:42;102411.14;;;22.74;28.07
80620;BME280;69979;53.682;-2.690;2023-05-17T18:08:07;102408.40;;;22.90;28.32
80620;BME280;69979;53.682;-2.690;2023-05-17T18:10:33;102407.37;;;23.12;28.36
80620;BME280;69979;53.682;-2.690;2023-05-17T18:12:58;102406.34;;;22.57;28.45
80620;BME280;69979;53.682;-2.690;2023-05-17T18:15:24;102404.97;;;22.58;28.50
80620;BME280;69979;53.682;-2.690;2023-05-17T18:17:49;102404.94;;;22.68;28.43
80620;BME280;69979;53.682;-2.690;2023-05-17T18:20:14;102404.92;;;22.74;28.39
80620;BME280;69979;53.682;-2.690;2023-05-17T18:22:39;102400.94;;;22.71;28.43
80620;BME280;69979;53.682;-2.690;2023-05-17T18:25:05;102401.45;;;22.69;28.49
80620;BME280;69979;53.682;-2.690;2023-05-17T18:27:30;102402.83;;;22.68;28.52
80620;BME280;69979;53.682;-2.690;2023-05-17T18:29:56;102401.66;;;22.69;28.53
80620;BME280;69979;53.682;-2.690;2023-05-17T18:32:21;102399.54;;;22.74;28.52
80620;BME280;69979;53.682;-2.690;2023-05-17T18:34:46;102397.87;;;22.70;28.56
80620;BME280;69979;53.682;-2.690;2023-05-17T18:37:11;102398.19;;;22.79;28.53
80620;BME280;69979;53.682;-2.690;2023-05-17T18:39:36;102397.43;;;23.15;28.28
80620;BME280;69979;53.682;-2.690;2023-05-17T18:42:02;102399.85;;;22.68;28.57
80620;BME280;69979;53.682;-2.690;2023-05-17T18:44:27;102395.72;;;23.08;28.46
80620;BME280;69979;53.682;-2.690;2023-05-17T18:46:53;102393.68;;;23.19;28.27
80620;BME280;69979;53.682;-2.690;2023-05-17T18:49:17;102396.21;;;23.72;28.34
80620;BME280;69979;53.682;-2.690;2023-05-17T18:51:43;102397.79;;;23.25;28.37
80620;BME280;69979;53.682;-2.690;2023-05-17T18:54:08;102396.75;;;23.61;28.24
80620;BME280;69979;53.682;-2.690;2023-05-17T18:56:34;102399.01;;;23.41;28.16
80620;BME280;69979;53.682;-2.690;2023-05-17T18:58:59;102398.55;;;23.33;28.35
80620;BME280;69979;53.682;-2.690;2023-05-17T19:01:25;102398.28;;;23.30;28.28
80620;BME280;69979;53.682;-2.690;2023-05-17T19:03:50;102396.35;;;23.52;28.39
80620;BME280;69979;53.682;-2.690;2023-05-17T19:06:15;102400.47;;;23.12;28.55
80620;BME280;69979;53.682;-2.690;2023-05-17T19:08:40;102398.16;;;23.22;28.48
80620;BME280;69979;53.682;-2.690;2023-05-17T19:11:05;102396.70;;;22.87;28.50
80620;BME280;69979;53.682;-2.690;2023-05-17T19:13:31;102394.82;;;23.27;28.44
80620;BME280;69979;53.682;-2.690;2023-05-17T19:15:56;102393.37;;;23.16;28.48
80620;BME280;69979;53.682;-2.690;2023-05-17T19:18:21;102390.62;;;23.26;28.46
80620;BME280;69979;53.682;-2.690;2023-05-17T19:20:47;102389.38;;;23.25;28.48
80620;BME280;69979;53.682;-2.690;2023-05-17T19:23:12;102387.17;;;23.17;28.58
80620;BME280;69979;53.682;-2.690;2023-05-17T19:25:37;102387.60;;;23.18;28.57
80620;BME280;69979;53.682;-2.690;2023-05-17T19:28:03;102385.85;;;23.20;28.46
80620;BME280;69979;53.682;-2.690;2023-05-17T19:30:28;102384.51;;;23.11;28.65
80620;BME280;69979;53.682;-2.690;2023-05-17T19:32:53;102384.98;;;23.20;28.56
80620;BME280;69979;53.682;-2.690;2023-05-17T19:35:19;102386.12;;;23.21;28.54
80620;BME280;69979;53.682;-2.690;2023-05-17T19:37:44;102387.62;;;23.35;28.45
80620;BME280;69979;53.682;-2.690;2023-05-17T19:40:10;102387.35;;;23.17;28.64
80620;BME280;69979;53.682;-2.690;2023-05-17T19:42:35;102386.64;;;23.19;28.59
80620;BME280;69979;53.682;-2.690;2023-05-17T19:45:00;102387.12;;;23.20;28.66
80620;BME280;69979;53.682;-2.690;2023-05-17T19:47:25;102388.23;;;23.68;28.59
80620;BME280;69979;53.682;-2.690;2023-05-17T19:49:50;102384.02;;;23.29;28.54
80620;BME280;69979;53.682;-2.690;2023-05-17T19:52:16;102385.42;;;23.68;28.38
80620;BME280;69979;53.682;-2.690;2023-05-17T19:54:41;102388.29;;;23.34;28.47
80620;BME280;69979;53.682;-2.690;2023-05-17T19:57:06;102386.04;;;23.16;28.63
80620;BME280;69979;53.682;-2.690;2023-05-17T19:59:32;102391.08;;;23.20;28.65
80620;BME280;69979;53.682;-2.690;2023-05-17T20:01:57;102391.54;;;23.36;28.72
80620;BME280;69979;53.682;-2.690;2023-05-17T20:04:22;102388.43;;;22.92;28.73
80620;BME280;69979;53.682;-2.690;2023-05-17T20:06:48;102386.14;;;23.13;28.78
80620;BME280;69979;53.682;-2.690;2023-05-17T20:09:13;102385.37;;;22.99;28.86
80620;BME280;69979;53.682;-2.690;2023-05-17T20:11:38;102388.02;;;23.18;28.69
80620;BME280;69979;53.682;-2.690;2023-05-17T20:14:04;102387.50;;;23.12;28.75
80620;BME280;69979;53.682;-2.690;2023-05-17T20:16:29;102389.81;;;23.03;28.84
80620;BME280;69979;53.682;-2.690;2023-05-17T20:18:54;102390.74;;;23.36;28.75
80620;BME280;69979;53.682;-2.690;2023-05-17T20:21:20;102386.84;;;23.39;28.72
80620;BME280;69979;53.682;-2.690;2023-05-17T20:23:45;102389.70;;;23.06;28.82
80620;BME280;69979;53.682;-2.690;2023-05-17T20:26:12;102388.99;;;22.96;28.94
80620;BME280;69979;53.682;-2.690;2023-05-17T20:28:36;102382.89;;;23.00;28.93
80620;BME280;69979;53.682;-2.690;2023-05-17T20:31:01;102387.31;;;23.09;29.02
80620;BME280;69979;53.682;-2.690;2023-05-17T20:33:26;102384.37;;;23.01;28.86
80620;BME280;69979;53.682;-2.690;2023-05-17T20:35:52;102386.02;;;22.78;29.05
80620;BME280;69979;53.682;-2.690;2023-05-17T20:38:17;102387.62;;;22.97;28.98
80620;BME280;69979;53.682;-2.690;2023-05-17T20:40:42;102388.62;;;22.91;29.05
80620;BME280;69979;53.682;-2.690;2023-05-17T20:43:07;102389.75;;;22.91;29.06
80620;BME280;69979;53.682;-2.690;2023-05-17T20:45:33;102389.00;;;22.99;28.92
80620;BME280;69979;53.682;-2.690;2023-05-17T20:47:58;102384.83;;;23.00;28.97
80620;BME280;69979;53.682;-2.690;2023-05-17T20:50:23;102388.09;;;22.97;28.98
80620;BME280;69979;53.682;-2.690;2023-05-17T20:52:48;102387.25;;;23.04;28.87
80620;BME280;69979;53.682;-2.690;2023-05-17T20:55:14;102387.75;;;22.96;28.99
80620;BME280;69979;53.682;-2.690;2023-05-17T20:57:39;102383.78;;;23.29;28.90
80620;BME280;69979;53.682;-2.690;2023-05-17T21:00:06;102382.57;;;23.10;28.86
80620;BME280;69979;53.682;-2.690;2023-05-17T21:02:29;102382.52;;;22.93;29.04
80620;BME280;69979;53.682;-2.690;2023-05-17T21:04:55;102382.99;;;23.44;29.01
80620;BME280;69979;53.682;-2.690;2023-05-17T21:07:20;102382.78;;;23.32;29.13
80620;BME280;69979;53.682;-2.690;2023-05-17T21:09:45;102384.54;;;22.90;29.08
80620;BME280;69979;53.682;-2.690;2023-05-17T21:12:11;102382.33;;;22.96;29.03
80620;BME280;69979;53.682;-2.690;2023-05-17T21:14:36;102385.65;;;22.93;29.07
80620;BME280;69979;53.682;-2.690;2023-05-17T21:17:01;102386.97;;;22.96;29.06
80620;BME280;69979;53.682;-2.690;2023-05-17T21:19:27;102385.44;;;23.35;29.11
80620;BME280;69979;53.682;-2.690;2023-05-17T21:21:52;102382.99;;;22.87;29.14
80620;BME280;69979;53.682;-2.690;2023-05-17T21:24:17;102380.09;;;22.85;29.15
80620;BME280;69979;53.682;-2.690;2023-05-17T21:26:43;102380.38;;;22.90;29.08
80620;BME280;69979;53.682;-2.690;2023-05-17T21:29:07;102375.62;;;22.90;29.14
80620;BME280;69979;53.682;-2.690;2023-05-17T21:31:33;102376.01;;;22.74;29.29
80620;BME280;69979;53.682;-2.690;2023-05-17T21:33:58;102378.47;;;23.39;29.11
80620;BME280;69979;53.682;-2.690;2023-05-17T21:36:23;102379.38;;;23.03;29.21
80620;BME280;69979;53.682;-2.690;2023-05-17T21:38:49;102376.63;;;23.02;29.26
80620;BME280;69979;53.682;-2.690;2023-05-17T21:41:14;102373.80;;;22.65;29.37
80620;BME280;69979;53.682;-2.690;2023-05-17T21:43:39;102376.39;;;22.92;29.35
80620;BME280;69979;53.682;-2.690;2023-05-17T21:46:04;102376.83;;;23.03;29.25
80620;BME280;69979;53.682;-2.690;2023-05-17T21:48:30;102378.95;;;22.70;29.34
80620;BME280;69979;53.682;-2.690;2023-05-17T21:50:55;102382.39;;;22.86;29.16
80620;BME280;69979;53.682;-2.690;2023-05-17T21:53:20;102379.05;;;23.32;29.18
80620;BME280;69979;53.682;-2.690;2023-05-17T21:55:46;102378.84;;;23.03;29.24
80620;BME280;69979;53.682;-2.690;2023-05-17T21:58:11;102374.76;;;22.83;29.17
80620;BME280;69979;53.682;-2.690;2023-05-17T22:00:36;102370.81;;;22.97;29.32
80620;BME280;69979;53.682;-2.690;2023-05-17T22:03:02;102372.85;;;22.93;29.33
80620;BME280;69979;53.682;-2.690;2023-05-17T22:05:27;102371.53;;;23.21;29.27
80620;BME280;69979;53.682;-2.690;2023-05-17T22:07:52;102366.13;;;22.71;29.34
80620;BME280;69979;53.682;-2.690;2023-05-17T22:10:18;102366.52;;;22.68;29.38
80620;BME280;69979;53.682;-2.690;2023-05-17T22:12:43;102363.63;;;22.91;29.35
80620;BME280;69979;53.682;-2.690;2023-05-17T22:15:09;102363.16;;;22.55;29.49
80620;BME280;69979;53.682;-2.690;2023-05-17T22:17:33;102363.68;;;22.44;29.39
80620;BME280;69979;53.682;-2.690;2023-05-17T22:19:59;102369.75;;;22.53;29.29
80620;BME280;69979;53.682;-2.690;2023-05-17T22:22:25;102368.50;;;22.96;29.31
80620;BME280;69979;53.682;-2.690;2023-05-17T22:24:50;102365.86;;;22.67;29.37
80620;BME280;69979;53.682;-2.690;2023-05-17T22:27:15;102370.70;;;22.54;29.53
80620;BME280;69979;53.682;-2.690;2023-05-17T22:29:40;102372.51;;;22.59;29.48
80620;BME280;69979;53.682;-2.690;2023-05-17T22:32:06;102372.80;;;22.95;29.62
80620;BME280;69979;53.682;-2.690;2023-05-17T22:34:31;102372.20;;;22.47;29.62
80620;BME280;69979;53.682;-2.690;2023-05-17T22:36:56;102370.36;;;22.45;29.61
80620;BME280;69979;53.682;-2.690;2023-05-17T22:39:21;102368.33;;;23.01;29.55
80620;BME280;69979;53.682;-2.690;2023-05-17T22:41:46;102365.78;;;22.53;29.78
80620;BME280;69979;53.682;-2.690;2023-05-17T22:44:12;102368.19;;;22.68;29.66
80620;BME280;69979;53.682;-2.690;2023-05-17T22:46:37;102363.98;;;22.58;29.74
80620;BME280;69979;53.682;-2.690;2023-05-17T22:49:03;102365.19;;;22.67;29.65
80620;BME280;69979;53.682;-2.690;2023-05-17T22:51:28;102365.80;;;22.72;29.34
80620;BME280;69979;53.682;-2.690;2023-05-17T22:53:53;102367.38;;;22.60;29.71
80620;BME280;69979;53.682;-2.690;2023-05-17T22:56:18;102363.24;;;22.50;29.57
80620;BME280;69979;53.682;-2.690;2023-05-17T22:58:44;102363.17;;;22.64;29.67
80620;BME280;69979;53.682;-2.690;2023-05-17T23:01:09;102364.96;;;22.57;29.50
80620;BME280;69979;53.682;-2.690;2023-05-17T23:03:34;102368.31;;;22.05;30.31
80620;BME280;69979;53.682;-2.690;2023-05-17T23:05:59;102372.22;;;23.16;29.43
80620;BME280;69979;53.682;-2.690;2023-05-17T23:08:25;102373.02;;;23.27;29.32
